createdAt,value
2023-03-11T00:02:37.085Z,0.90
2023-03-11T00:05:41.111Z,0.80
2023-03-11T00:08:43.234Z,0.70
2023-03-11T00:11:45.293Z,0.83
2023-03-11T00:14:47.278Z,1.20
2023-03-11T00:17:49.355Z,0.70
2023-03-11T00:20:51.537Z,1.00
2023-03-11T00:23:53.558Z,1.00
2023-03-11T00:26:55.571Z,0.90
2023-03-11T00:29:57.511Z,1.00
2023-03-11T00:33:00.559Z,1.00
2023-03-11T00:36:02.806Z,0.77
2023-03-11T00:39:06.781Z,0.73
2023-03-11T00:42:08.757Z,0.60
2023-03-11T00:45:11.423Z,0.80
2023-03-11T00:48:14.696Z,0.57
2023-03-11T00:51:16.759Z,0.60
2023-03-11T00:54:18.762Z,0.60
2023-03-11T00:57:21.018Z,0.73
2023-03-11T01:00:24.579Z,0.50
2023-03-11T01:03:26.610Z,0.70
2023-03-11T01:06:39.161Z,0.70
2023-03-11T01:09:46.660Z,0.50
2023-03-11T01:12:49.109Z,0.70
2023-03-11T01:15:51.206Z,0.70
2023-03-11T01:18:53.272Z,0.90
2023-03-11T01:21:55.215Z,0.60
2023-03-11T01:24:57.260Z,0.70
2023-03-11T01:27:59.845Z,0.70
2023-03-11T01:31:02.001Z,0.60
2023-03-11T01:34:05.147Z,0.80
2023-03-11T01:37:07.126Z,0.80
2023-03-11T01:40:14.484Z,0.80
2023-03-11T01:43:41.034Z,0.77
2023-03-11T01:46:55.187Z,0.50
2023-03-11T01:50:01.711Z,0.57
2023-03-11T01:53:06.046Z,0.70
2023-03-11T01:56:09.209Z,0.67
2023-03-11T01:59:14.789Z,0.60
2023-03-11T02:02:34.549Z,0.50
2023-03-11T02:05:37.672Z,0.80
2023-03-11T02:08:42.064Z,0.57
2023-03-11T02:11:45.181Z,0.50
2023-03-11T02:14:50.876Z,0.50
2023-03-11T02:17:53.924Z,0.80
2023-03-11T02:21:12.135Z,0.60
2023-03-11T02:24:31.469Z,0.60
2023-03-11T02:27:39.306Z,0.60
2023-03-11T02:30:43.838Z,0.60
2023-03-11T02:33:49.379Z,0.40
2023-03-11T02:36:52.371Z,0.60
2023-03-11T02:40:15.967Z,0.60
2023-03-11T02:43:23.483Z,0.80
2023-03-11T02:46:26.465Z,0.60
2023-03-11T02:49:29.896Z,0.70
2023-03-11T02:52:34.726Z,0.80
2023-03-11T02:55:36.864Z,0.73
2023-03-11T02:58:39.217Z,0.63
2023-03-11T03:01:41.261Z,0.67
2023-03-11T03:04:43.802Z,0.70
2023-03-11T03:07:46.264Z,0.60
2023-03-11T03:10:48.376Z,0.60
2023-03-11T03:13:50.400Z,0.60
2023-03-11T03:16:52.686Z,0.87
2023-03-11T03:19:54.764Z,0.43
2023-03-11T03:22:56.960Z,0.67
2023-03-11T03:26:02.879Z,0.60
2023-03-11T03:29:05.754Z,0.77
2023-03-11T03:32:08.207Z,0.60
2023-03-11T03:35:10.917Z,0.60
2023-03-11T03:38:45.437Z,0.50
2023-03-11T03:41:47.578Z,0.57
2023-03-11T03:44:49.827Z,0.63
2023-03-11T03:47:51.900Z,0.60
2023-03-11T03:50:56.032Z,0.40
2023-03-11T03:53:58.187Z,0.50
2023-03-11T03:57:01.271Z,0.60
2023-03-11T04:00:09.242Z,0.60
2023-03-11T04:03:15.543Z,0.40
2023-03-11T04:06:26.771Z,0.50
2023-03-11T04:09:42.490Z,0.60
2023-03-11T04:12:45.430Z,0.50
2023-03-11T04:15:47.672Z,0.57
2023-03-11T04:18:49.859Z,0.50
2023-03-11T04:21:53.051Z,0.67
2023-03-11T04:24:56.930Z,0.67
2023-03-11T04:27:59.072Z,0.60
2023-03-11T04:31:01.907Z,0.40
2023-03-11T04:34:06.861Z,0.87
2023-03-11T04:37:10.421Z,0.50
2023-03-11T04:40:12.888Z,0.33
2023-03-11T04:43:15.855Z,0.40
2023-03-11T04:46:17.905Z,0.50
2023-03-11T04:49:20.108Z,0.50
2023-03-11T04:52:23.325Z,0.57
2023-03-11T04:55:25.331Z,0.40
2023-03-11T04:58:27.956Z,0.40
2023-03-11T05:01:30.360Z,0.50
2023-03-11T05:04:36.028Z,0.50
2023-03-11T05:07:38.342Z,0.47
2023-03-11T05:10:42.941Z,0.47
2023-03-11T05:13:45.449Z,0.40
2023-03-11T05:16:48.682Z,0.30
2023-03-11T05:19:53.770Z,0.53
2023-03-11T05:23:00.361Z,0.40
2023-03-11T05:26:05.548Z,0.40
2023-03-11T05:29:08.308Z,0.40
2023-03-11T05:32:10.445Z,0.40
2023-03-11T05:35:12.720Z,0.40
2023-03-11T05:38:15.299Z,0.50
2023-03-11T05:41:19.331Z,0.40
2023-03-11T05:44:21.413Z,0.40
2023-03-11T05:47:23.665Z,0.40
2023-03-11T05:50:26.163Z,0.40
2023-03-11T05:53:28.855Z,0.40
2023-03-11T05:56:30.962Z,0.60
2023-03-11T05:59:34.264Z,0.50
2023-03-11T06:02:41.163Z,0.40
2023-03-11T06:05:49.053Z,0.50
2023-03-11T06:08:51.272Z,0.50
2023-03-11T06:11:55.144Z,0.50
2023-03-11T06:15:00.657Z,0.50
2023-03-11T06:18:03.184Z,0.40
2023-03-11T06:21:05.701Z,0.77
2023-03-11T06:24:08.565Z,0.70
2023-03-11T06:27:11.438Z,0.50
2023-03-11T06:30:15.931Z,0.60
2023-03-11T06:33:26.924Z,0.67
2023-03-11T06:36:29.001Z,0.60
2023-03-11T06:39:31.092Z,0.50
2023-03-11T06:42:33.236Z,0.87
2023-03-11T06:45:36.010Z,0.60
2023-03-11T06:48:38.501Z,0.70
2023-03-11T06:51:41.620Z,0.70
2023-03-11T06:54:45.723Z,0.77
2023-03-11T06:57:49.926Z,0.90
2023-03-11T07:00:52.199Z,0.60
2023-03-11T07:03:54.826Z,0.77
2023-03-11T07:06:59.025Z,0.60
2023-03-11T07:10:01.299Z,0.60
2023-03-11T07:13:03.540Z,0.70
2023-03-11T07:16:12.932Z,0.60
2023-03-11T07:19:15.300Z,0.90
2023-03-11T07:22:17.871Z,0.77
2023-03-11T07:25:19.861Z,0.80
2023-03-11T07:28:26.355Z,0.90
2023-03-11T07:31:33.327Z,0.90
2023-03-11T07:34:35.747Z,0.90
2023-03-11T07:37:37.771Z,0.87
2023-03-11T07:40:39.747Z,1.07
2023-03-11T07:43:42.792Z,0.70
2023-03-11T07:46:47.022Z,0.70
2023-03-11T07:49:49.074Z,0.80
2023-03-11T07:52:51.075Z,0.60
2023-03-11T07:55:58.576Z,0.70
2023-03-11T07:59:02.302Z,0.90
2023-03-11T08:02:04.915Z,0.97
2023-03-11T08:05:07.704Z,0.70
2023-03-11T08:08:10.313Z,0.97
2023-03-11T08:11:13.744Z,0.83
2023-03-11T08:14:15.943Z,0.60
2023-03-11T08:17:18.121Z,0.70
2023-03-11T08:20:20.397Z,0.50
2023-03-11T08:23:22.574Z,0.60
2023-03-11T08:26:27.116Z,0.50
2023-03-11T08:29:30.425Z,0.50
2023-03-11T08:32:33.470Z,0.50
2023-03-11T08:35:35.607Z,0.50
2023-03-11T08:38:44.246Z,0.60
2023-03-11T08:41:46.381Z,0.63
2023-03-11T08:44:48.468Z,0.60
2023-03-11T08:47:50.603Z,0.63
2023-03-11T08:50:54.644Z,0.53
2023-03-11T08:53:57.279Z,0.63
2023-03-11T08:57:03.196Z,0.50
2023-03-11T09:00:11.529Z,0.80
2023-03-11T09:03:15.482Z,0.60
2023-03-11T09:06:18.557Z,0.53
2023-03-11T09:09:20.718Z,0.67
2023-03-11T09:12:23.005Z,0.70
2023-03-11T09:15:25.304Z,0.53
2023-03-11T09:18:28.806Z,0.60
2023-03-11T09:21:30.991Z,0.60
2023-03-11T09:24:35.165Z,0.40
2023-03-11T09:27:37.320Z,0.43
2023-03-11T09:30:40.013Z,0.80
2023-03-11T09:33:43.051Z,0.70
2023-03-11T09:36:45.457Z,0.50
2023-03-11T09:39:47.544Z,0.40
2023-03-11T09:43:18.682Z,0.47
2023-03-11T09:46:39.524Z,0.47
2023-03-11T09:50:21.025Z,0.57
2023-03-11T09:53:55.127Z,0.53
2023-03-11T09:56:57.481Z,0.47
2023-03-11T10:00:02.473Z,0.50
2023-03-11T10:03:27.347Z,0.50
2023-03-11T10:06:30.732Z,0.50
2023-03-11T10:09:43.892Z,0.60
2023-03-11T10:13:16.982Z,0.40
2023-03-11T10:16:29.844Z,0.67
2023-03-11T10:19:56.804Z,0.50
2023-03-11T10:23:22.421Z,0.40
2023-03-11T10:26:57.787Z,0.30
2023-03-11T10:30:30.827Z,0.70
2023-03-11T10:33:49.220Z,0.43
2023-03-11T10:37:04.529Z,0.60
2023-03-11T10:40:31.692Z,0.40
2023-03-11T10:43:45.398Z,0.40
2023-03-11T10:46:47.859Z,0.60
2023-03-11T10:49:50.797Z,0.50
2023-03-11T10:53:22.941Z,0.53
2023-03-11T10:56:28.139Z,0.50
2023-03-11T10:59:34.426Z,0.47
2023-03-11T11:02:50.413Z,0.30
2023-03-11T11:06:07.970Z,0.40
2023-03-11T11:09:18.038Z,0.60
2023-03-11T11:12:21.425Z,0.43
2023-03-11T11:15:31.855Z,0.40
2023-03-11T11:18:42.548Z,0.20
2023-03-11T11:21:52.590Z,0.30
2023-03-11T11:24:56.999Z,0.33
2023-03-11T11:28:02.694Z,0.23
2023-03-11T11:31:19.244Z,0.30
2023-03-11T11:34:31.601Z,0.30
2023-03-11T11:37:37.787Z,0.37
2023-03-11T11:40:40.444Z,0.40
2023-03-11T11:43:56.219Z,0.23
2023-03-11T11:47:06.335Z,0.40
2023-03-11T11:50:18.951Z,0.47
2023-03-11T11:53:28.649Z,0.40
2023-03-11T11:56:30.943Z,0.40
2023-03-11T11:59:33.056Z,0.30
2023-03-11T12:02:54.908Z,0.30
2023-03-11T12:06:00.819Z,0.33
2023-03-11T12:09:39.063Z,0.47
2023-03-11T12:12:57.091Z,0.47
2023-03-11T12:16:31.693Z,0.50
2023-03-11T12:19:56.626Z,0.50
2023-03-11T12:23:10.393Z,0.50
2023-03-11T12:26:21.772Z,0.40
2023-03-11T12:29:55.610Z,0.57
2023-03-11T12:33:34.281Z,0.50
2023-03-11T12:36:47.113Z,0.37
2023-03-11T12:39:49.301Z,0.40
2023-03-11T12:42:51.415Z,0.40
2023-03-11T12:45:55.864Z,0.30
2023-03-11T12:49:14.070Z,0.30
2023-03-11T12:52:30.302Z,0.47
2023-03-11T12:55:35.171Z,0.77
2023-03-11T12:59:20.175Z,0.40
2023-03-11T13:02:31.015Z,0.40
2023-03-11T13:05:59.523Z,0.30
2023-03-11T13:09:03.481Z,0.30
2023-03-11T13:12:40.436Z,0.43
2023-03-11T13:15:43.421Z,0.40
2023-03-11T13:18:47.924Z,0.30
2023-03-11T13:21:50.117Z,0.43
2023-03-11T13:24:52.405Z,0.40
2023-03-11T13:28:17.215Z,0.40
2023-03-11T13:31:34.939Z,0.30
2023-03-11T13:34:40.859Z,0.37
2023-03-11T13:38:20.467Z,0.40
2023-03-11T13:41:32.169Z,0.20
2023-03-11T13:44:39.785Z,0.50
2023-03-11T13:47:49.799Z,0.40
2023-03-11T13:51:15.419Z,0.30
2023-03-11T13:54:23.574Z,0.30
2023-03-11T13:57:37.973Z,0.50
2023-03-11T14:00:48.872Z,0.27
2023-03-11T14:03:51.460Z,0.30
2023-03-11T14:06:53.610Z,0.40
2023-03-11T14:10:18.198Z,0.33
2023-03-11T14:13:23.799Z,0.40
2023-03-11T14:16:44.308Z,0.50
2023-03-11T14:20:07.720Z,0.53
2023-03-11T14:23:18.887Z,0.50
2023-03-11T14:26:33.171Z,0.30
2023-03-11T14:29:40.698Z,0.40
2023-03-11T14:32:43.115Z,0.30
2023-03-11T14:35:56.665Z,0.40
2023-03-11T14:38:58.864Z,0.30
2023-03-11T14:42:19.031Z,0.30
2023-03-11T14:45:28.052Z,0.20
2023-03-11T14:48:42.045Z,0.40
2023-03-11T14:51:45.295Z,0.37
2023-03-11T14:54:50.248Z,0.30
2023-03-11T14:57:52.824Z,0.60
2023-03-11T15:01:00.206Z,0.47
2023-03-11T15:04:29.325Z,0.50
2023-03-11T15:07:34.599Z,0.33
2023-03-11T15:10:38.111Z,0.40
2023-03-11T15:13:43.296Z,0.60
2023-03-11T15:16:46.461Z,0.60
2023-03-11T15:19:49.626Z,0.47
2023-03-11T15:22:58.483Z,0.50
2023-03-11T15:26:01.816Z,0.30
2023-03-11T15:29:14.167Z,0.60
2023-03-11T15:32:44.076Z,0.30
2023-03-11T15:35:48.874Z,0.33
2023-03-11T15:39:15.578Z,0.70
2023-03-11T15:42:23.708Z,0.50
2023-03-11T15:45:26.042Z,0.50
2023-03-11T15:48:30.717Z,0.50
2023-03-11T15:51:33.233Z,0.50
2023-03-11T15:54:36.296Z,0.60
2023-03-11T15:57:40.540Z,0.23
2023-03-11T16:00:50.597Z,0.30
2023-03-11T16:03:53.310Z,0.40
2023-03-11T16:07:07.316Z,0.40
2023-03-11T16:10:11.221Z,0.47
2023-03-11T16:13:15.445Z,0.40
2023-03-11T16:16:19.275Z,0.30
2023-03-11T16:19:22.284Z,0.33
2023-03-11T16:22:37.111Z,0.50
2023-03-11T16:25:41.529Z,0.40
2023-03-11T16:28:44.553Z,0.50
2023-03-11T16:31:47.750Z,0.60
2023-03-11T16:34:50.465Z,0.50
2023-03-11T16:37:55.239Z,0.30
2023-03-11T16:41:01.469Z,0.40
2023-03-11T16:44:09.226Z,0.30
2023-03-11T16:47:12.628Z,0.70
2023-03-11T16:50:14.800Z,0.40
2023-03-11T16:53:18.921Z,0.40
2023-03-11T16:56:23.023Z,0.60
2023-03-11T16:59:28.027Z,0.50
2023-03-11T17:02:32.388Z,0.47
2023-03-11T17:05:35.069Z,0.40
2023-03-11T17:08:37.634Z,0.53
2023-03-11T17:11:40.072Z,0.70
2023-03-11T17:14:42.938Z,0.50
2023-03-11T17:17:46.099Z,0.40
2023-03-11T17:20:50.020Z,0.40
2023-03-11T17:23:54.868Z,0.80
2023-03-11T17:26:59.249Z,0.80
2023-03-11T17:30:05.004Z,0.60
2023-03-11T17:33:08.194Z,0.50
2023-03-11T17:36:16.828Z,0.47
2023-03-11T17:39:21.024Z,0.53
2023-03-11T17:42:24.296Z,0.43
2023-03-11T17:45:28.002Z,0.70
2023-03-11T17:48:30.871Z,0.50
2023-03-11T17:51:35.136Z,0.40
2023-03-11T17:54:37.530Z,0.40
2023-03-11T17:57:45.597Z,0.40
2023-03-11T18:00:49.390Z,0.50
2023-03-11T18:03:53.132Z,0.90
2023-03-11T18:06:56.984Z,0.60
2023-03-11T18:09:59.719Z,0.80
2023-03-11T18:13:02.376Z,0.43
2023-03-11T18:16:17.613Z,0.60
2023-03-11T18:19:21.140Z,0.47
2023-03-11T18:22:24.504Z,0.43
2023-03-11T18:25:27.617Z,0.50
2023-03-11T18:28:31.573Z,0.50
2023-03-11T18:31:34.589Z,0.40
2023-03-11T18:34:45.779Z,0.57
2023-03-11T18:37:48.916Z,0.57
2023-03-11T18:41:02.281Z,4.70
2023-03-11T18:44:05.454Z,1.50
2023-03-11T18:47:08.492Z,0.73
2023-03-11T18:50:11.987Z,0.60
2023-03-11T18:53:16.136Z,0.60
2023-03-11T18:56:19.396Z,0.50
2023-03-11T18:59:22.404Z,0.50
2023-03-11T19:02:27.647Z,0.63
2023-03-11T19:05:30.700Z,0.87
2023-03-11T19:08:34.030Z,0.73
2023-03-11T19:11:38.648Z,0.57
2023-03-11T19:14:44.555Z,0.70
2023-03-11T19:17:57.421Z,0.70
2023-03-11T19:21:09.987Z,0.80
2023-03-11T19:24:13.742Z,0.70
2023-03-11T19:27:16.840Z,0.70
2023-03-11T19:30:21.075Z,0.60
2023-03-11T19:33:25.096Z,0.73
2023-03-11T19:36:28.077Z,0.73
2023-03-11T19:39:30.902Z,0.70
2023-03-11T19:42:34.807Z,0.80
2023-03-11T19:45:40.571Z,0.57
2023-03-11T19:48:43.990Z,0.70
2023-03-11T19:51:50.476Z,0.80
2023-03-11T19:54:54.196Z,0.70
2023-03-11T19:57:58.040Z,1.70
2023-03-11T20:01:02.349Z,0.90
2023-03-11T20:04:06.908Z,1.50
2023-03-11T20:07:10.253Z,1.13
2023-03-11T20:10:13.299Z,0.80
2023-03-11T20:13:20.294Z,1.47
2023-03-11T20:16:23.492Z,0.80
2023-03-11T20:19:27.196Z,1.00
2023-03-11T20:22:29.757Z,1.00
2023-03-11T20:25:33.488Z,0.93
2023-03-11T20:28:36.832Z,1.17
2023-03-11T20:31:40.192Z,0.97
2023-03-11T20:34:44.740Z,0.70
2023-03-11T20:37:47.862Z,0.80
2023-03-11T20:40:58.935Z,1.07
2023-03-11T20:44:03.335Z,1.10
2023-03-11T20:47:06.283Z,1.00
2023-03-11T20:50:09.991Z,1.10
2023-03-11T20:53:12.722Z,0.60
2023-03-11T20:56:19.380Z,0.80
2023-03-11T20:59:22.187Z,1.10
2023-03-11T21:02:25.109Z,0.80
2023-03-11T21:05:28.161Z,1.10
2023-03-11T21:08:30.895Z,1.10
2023-03-11T21:11:34.007Z,0.83
2023-03-11T21:14:36.886Z,0.90
2023-03-11T21:17:40.815Z,1.27
2023-03-11T21:20:43.865Z,2.43
2023-03-11T21:23:48.514Z,1.47
2023-03-11T21:26:51.186Z,1.70
2023-03-11T21:29:57.644Z,1.23
2023-03-11T21:33:00.485Z,1.40
2023-03-11T21:36:03.350Z,2.13
2023-03-11T21:39:06.265Z,1.07
2023-03-11T21:42:08.709Z,1.10
2023-03-11T21:45:11.566Z,1.30
2023-03-11T21:48:14.884Z,1.40
2023-03-11T21:51:18.849Z,1.40
2023-03-11T21:54:21.202Z,1.20
2023-03-11T21:57:24.017Z,1.47
2023-03-11T22:00:26.479Z,1.17
2023-03-11T22:03:29.123Z,1.07
2023-03-11T22:06:33.481Z,1.37
2023-03-11T22:09:35.721Z,1.00
2023-03-11T22:12:37.936Z,1.23
2023-03-11T22:15:40.091Z,2.37
2023-03-11T22:18:42.307Z,1.47
2023-03-11T22:21:44.666Z,3.23
2023-03-11T22:24:46.827Z,1.23
2023-03-11T22:27:49.033Z,2.00
2023-03-11T22:30:51.244Z,1.60
2023-03-11T22:33:53.316Z,0.90
2023-03-11T22:36:55.370Z,1.33
2023-03-11T22:39:57.430Z,1.50
2023-03-11T22:42:59.530Z,1.40
2023-03-11T22:46:02.394Z,1.43
2023-03-11T22:49:04.637Z,1.50
2023-03-11T22:52:06.698Z,1.67
2023-03-11T22:55:09.132Z,1.80
2023-03-11T22:58:12.352Z,5.00
2023-03-11T23:01:14.415Z,8.60
2023-03-11T23:04:16.668Z,2.00
2023-03-11T23:07:18.737Z,1.70
2023-03-11T23:10:21.646Z,1.33
2023-03-11T23:13:23.708Z,1.47
2023-03-11T23:16:26.469Z,1.20
2023-03-11T23:19:28.578Z,1.40
2023-03-11T23:22:30.595Z,1.03
2023-03-11T23:25:34.280Z,1.30
2023-03-11T23:28:37.406Z,1.10
2023-03-11T23:31:39.720Z,1.00
2023-03-11T23:34:41.795Z,1.10
2023-03-11T23:37:48.222Z,1.30
2023-03-11T23:40:50.280Z,1.10
2023-03-11T23:43:52.661Z,1.20
2023-03-11T23:46:54.736Z,1.40
2023-03-11T23:49:56.810Z,1.10
2023-03-11T23:52:58.875Z,1.10
2023-03-11T23:56:01.111Z,1.30
2023-03-11T23:59:03.181Z,1.30
